Time;durP1;ratioP1;P1;durP2;ratioP2;P2;SDS_P1;SDS_P2;PMS_P1;PMS_P2;Temp;Humidity;BMP_temperature;BMP_pressure;BME280_temperature;BME280_humidity;BME280_pressure;Samples;Min_cycle;Max_cycle;Signal;HPM_P1;HPM_P2
2022/12/22 03:26:23;;;;;;;450.45;232.82;;;6.40;99.90;;;;;;5074248;28;20474;-58
2022/12/22 03:28:49;;;;;;;459.00;235.93;;;6.40;99.90;;;;;;5074323;28;20032;-58
2022/12/22 03:31:15;;;;;;;462.77;236.75;;;6.40;99.90;;;;;;5077285;28;20393;-58
2022/12/22 03:33:41;;;;;;;469.02;241.82;;;6.40;99.90;;;;;;5060157;28;20029;-58
2022/12/22 03:36:08;;;;;;;484.42;248.98;;;6.40;99.90;;;;;;5078206;28;20536;-58
2022/12/22 03:38:34;;;;;;;476.60;247.50;;;6.30;99.90;;;;;;5078161;28;20025;-58
2022/12/22 03:41:01;;;;;;;470.67;241.98;;;6.30;99.90;;;;;;5078207;28;20063;-58
2022/12/22 03:46:31;;;;;;;437.92;216.43;;;6.40;99.90;;;;;;5077951;28;20025;-58
2022/12/22 03:49:08;;;;;;;400.95;192.50;;;6.50;99.90;;;;;;5077954;28;20390;-58
2022/12/22 03:51:38;;;;;;;428.50;211.25;;;6.50;99.90;;;;;;5077826;28;20032;-58
2022/12/22 03:54:04;;;;;;;542.42;264.70;;;6.50;99.90;;;;;;5077933;28;20126;-58
2022/12/22 03:56:30;;;;;;;531.17;254.38;;;6.40;99.90;;;;;;5077690;28;20478;-58
2022/12/22 03:58:56;;;;;;;504.50;233.57;;;6.50;99.90;;;;;;5077733;28;20031;-58
2022/12/22 04:01:22;;;;;;;496.27;227.50;;;6.40;99.90;;;;;;5077704;28;20104;-59
2022/12/22 04:03:49;;;;;;;458.63;210.75;;;6.40;99.90;;;;;;5077773;28;20542;-58
2022/12/22 04:06:16;;;;;;;457.65;213.93;;;6.50;99.90;;;;;;5077455;28;20028;-58
2022/12/22 04:08:42;;;;;;;478.73;222.98;;;6.50;99.90;;;;;;5077489;28;20031;-58
2022/12/22 04:13:55;;;;;;;458.25;213.45;;;6.50;99.90;;;;;;5077297;28;20037;-58
2022/12/22 04:16:21;;;;;;;458.98;211.90;;;6.40;99.90;;;;;;5077488;28;20027;-58
2022/12/22 04:18:47;;;;;;;440.98;204.13;;;6.40;99.90;;;;;;5077072;28;20114;-58
2022/12/22 04:21:13;;;;;;;458.77;215.15;;;6.50;99.90;;;;;;5077260;28;20044;-58
2022/12/22 04:23:39;;;;;;;441.58;213.55;;;6.50;99.90;;;;;;5077375;28;20051;-58
2022/12/22 04:26:05;;;;;;;424.70;201.57;;;6.50;99.90;;;;;;5077291;28;20028;-58
2022/12/22 04:28:31;;;;;;;431.33;203.63;;;6.40;99.90;;;;;;5077221;28;20025;-58
2022/12/22 04:30:57;;;;;;;433.70;211.07;;;6.40;99.90;;;;;;5077172;28;20033;-58
2022/12/22 04:33:23;;;;;;;504.55;244.65;;;6.40;99.90;;;;;;5077134;28;20036;-58
2022/12/22 04:35:49;;;;;;;541.75;263.40;;;6.40;99.90;;;;;;5077222;28;20025;-58
2022/12/22 04:38:14;;;;;;;527.53;257.80;;;6.50;99.90;;;;;;5077039;28;20035;-58
2022/12/22 04:40:40;;;;;;;531.92;258.08;;;6.50;99.90;;;;;;5076548;28;20048;-58
2022/12/22 04:43:06;;;;;;;509.92;245.77;;;6.50;99.90;;;;;;5076835;28;20382;-58
2022/12/22 04:45:32;;;;;;;509.40;245.98;;;6.40;99.90;;;;;;5076997;28;20020;-58
2022/12/22 04:47:58;;;;;;;517.65;246.00;;;6.30;99.90;;;;;;5076784;28;20025;-58
2022/12/22 04:50:24;;;;;;;512.95;243.50;;;6.30;99.90;;;;;;5076799;28;20347;-58
2022/12/22 04:52:50;;;;;;;503.13;245.30;;;6.40;99.90;;;;;;5076733;28;20044;-58
2022/12/22 04:55:16;;;;;;;497.38;247.80;;;6.40;99.90;;;;;;5076732;28;20021;-59
2022/12/22 04:57:42;;;;;;;507.83;246.05;;;6.40;99.90;;;;;;5076640;28;20090;-58
2022/12/22 05:00:09;;;;;;;509.73;251.20;;;6.50;99.90;;;;;;5076989;28;20024;-58
2022/12/22 05:02:35;;;;;;;518.40;251.75;;;6.50;99.90;;;;;;5076671;28;20029;-58
2022/12/22 05:05:01;;;;;;;507.83;253.50;;;6.50;99.90;;;;;;5076611;28;20040;-58
2022/12/22 05:07:27;;;;;;;509.13;249.90;;;6.50;99.90;;;;;;5076425;28;20042;-58
2022/12/22 05:09:53;;;;;;;494.17;251.43;;;6.50;99.90;;;;;;5076355;28;20086;-58
2022/12/22 05:15:03;;;;;;;476.85;234.32;;;6.50;99.90;;;;;;5076468;28;20108;-58
2022/12/22 05:17:29;;;;;;;499.08;247.57;;;6.40;99.90;;;;;;5076117;28;20044;-58
2022/12/22 05:19:55;;;;;;;501.55;253.75;;;6.50;99.90;;;;;;5076268;28;20033;-58
2022/12/22 05:22:21;;;;;;;493.23;249.13;;;6.30;99.90;;;;;;5076337;28;20028;-58
2022/12/22 05:24:47;;;;;;;503.95;247.18;;;6.40;99.90;;;;;;5076507;28;20449;-58
2022/12/22 05:27:13;;;;;;;496.55;247.13;;;6.40;99.90;;;;;;5076176;28;20035;-58
2022/12/22 05:29:39;;;;;;;500.83;250.52;;;6.50;99.90;;;;;;5076152;28;20037;-58
2022/12/22 05:32:04;;;;;;;481.05;237.40;;;6.50;99.90;;;;;;5075889;28;20438;-58
2022/12/22 05:34:30;;;;;;;492.55;242.82;;;6.50;99.90;;;;;;5076028;28;20045;-58
2022/12/22 05:36:56;;;;;;;486.58;238.80;;;6.50;99.90;;;;;;5075996;28;20025;-58
2022/12/22 05:39:22;;;;;;;483.95;232.57;;;6.50;99.90;;;;;;5075819;28;20032;-58
2022/12/22 05:41:48;;;;;;;451.88;221.60;;;6.60;99.90;;;;;;5075928;28;20021;-58
2022/12/22 05:44:14;;;;;;;510.08;246.68;;;6.60;99.90;;;;;;5075591;28;20037;-58
2022/12/22 05:46:40;;;;;;;533.67;268.95;;;6.60;99.90;;;;;;5075764;28;20498;-58
2022/12/22 05:49:06;;;;;;;558.05;281.58;;;6.70;99.90;;;;;;5075722;28;20025;-58
2022/12/22 05:51:32;;;;;;;568.22;296.33;;;6.80;99.90;;;;;;5075577;28;20098;-58
2022/12/22 05:53:58;;;;;;;547.22;267.77;;;6.70;99.90;;;;;;5074290;28;20024;-58
2022/12/22 05:56:24;;;;;;;472.50;228.00;;;6.70;99.90;;;;;;5075688;28;20052;-58
2022/12/22 05:58:50;;;;;;;436.05;211.77;;;6.70;99.90;;;;;;5075604;28;20025;-58
2022/12/22 06:01:15;;;;;;;459.85;223.75;;;6.60;99.90;;;;;;5075374;28;20466;-58
2022/12/22 06:03:41;;;;;;;543.33;270.77;;;6.60;99.90;;;;;;5075172;28;20028;-58
2022/12/22 06:06:07;;;;;;;501.35;241.75;;;6.70;99.90;;;;;;5075289;28;20433;-58
2022/12/22 06:08:33;;;;;;;436.98;211.55;;;6.60;99.90;;;;;;5075905;28;20086;-58
2022/12/22 06:10:59;;;;;;;421.55;202.90;;;6.70;99.90;;;;;;5075897;28;20068;-58
2022/12/22 06:13:26;;;;;;;382.17;185.57;;;6.80;99.90;;;;;;5074989;28;20027;-58
2022/12/22 06:15:52;;;;;;;379.35;184.60;;;6.80;99.90;;;;;;5075131;28;20058;-60
2022/12/22 06:18:18;;;;;;;362.00;177.48;;;6.80;99.90;;;;;;5074846;28;20048;-60
2022/12/22 06:20:49;;;;;;;354.17;170.75;;;6.90;99.90;;;;;;5074958;28;20024;-60
2022/12/22 06:23:15;;;;;;;335.15;160.68;;;6.80;99.90;;;;;;5074642;28;20033;-60
2022/12/22 06:25:41;;;;;;;330.90;157.38;;;6.80;99.90;;;;;;5075171;28;20028;-60
2022/12/22 06:28:07;;;;;;;349.70;163.75;;;6.80;99.90;;;;;;5075643;28;20536;-60
2022/12/22 06:34:18;;;;;;;327.38;154.68;;;6.90;99.90;;;;;;5013938;28;20057;-60
2022/12/22 06:36:45;;;;;;;315.33;152.75;;;6.90;99.90;;;;;;5052882;28;20029;-60
2022/12/22 06:39:12;;;;;;;329.95;154.80;;;6.90;99.90;;;;;;5050504;28;20024;-60
2022/12/22 06:44:23;;;;;;;478.27;193.70;;;7.00;99.90;;;;;;5074102;28;20020;-60
2022/12/22 06:46:49;;;;;;;461.98;193.50;;;7.10;99.90;;;;;;5074047;28;20111;-60
2022/12/22 06:49:15;;;;;;;468.00;221.32;;;7.10;99.90;;;;;;5074400;28;20060;-60
2022/12/22 06:51:41;;;;;;;480.05;221.98;;;7.10;99.90;;;;;;5074706;28;20027;-60
2022/12/22 06:54:10;;;;;;;391.98;187.55;;;7.10;99.90;;;;;;5075026;28;20040;-60
2022/12/22 06:56:36;;;;;;;431.20;208.88;;;7.10;99.90;;;;;;5074898;28;20467;-60
2022/12/22 06:59:02;;;;;;;533.83;260.17;;;7.20;99.90;;;;;;5074263;28;20035;-60
2022/12/22 07:01:28;;;;;;;523.55;262.40;;;7.10;99.90;;;;;;5072729;28;20051;-60
2022/12/22 07:03:54;;;;;;;519.95;252.40;;;7.10;99.90;;;;;;5074668;28;20033;-61
2022/12/22 07:06:20;;;;;;;521.10;252.60;;;7.10;99.90;;;;;;5074893;28;20036;-61
2022/12/22 07:08:47;;;;;;;543.17;267.55;;;7.20;99.90;;;;;;5074504;28;20029;-61
2022/12/22 07:11:13;;;;;;;557.10;285.45;;;7.30;99.90;;;;;;5073508;28;20039;-61
2022/12/22 07:13:39;;;;;;;565.30;285.75;;;7.40;99.90;;;;;;5083376;28;20078;-61
2022/12/22 07:16:07;;;;;;;543.47;277.02;;;7.40;99.90;;;;;;5094351;28;20024;-61
2022/12/22 07:18:36;;;;;;;465.95;227.80;;;7.40;99.90;;;;;;5094085;28;20105;-61
2022/12/22 07:21:04;;;;;;;399.50;198.93;;;7.40;99.90;;;;;;5094221;28;20205;-60
2022/12/22 07:23:30;;;;;;;373.05;181.18;;;7.50;99.90;;;;;;5094232;28;20055;-61
2022/12/22 07:25:57;;;;;;;347.00;173.93;;;7.50;99.90;;;;;;5076162;28;20055;-60
2022/12/22 07:28:24;;;;;;;348.88;171.95;;;7.50;99.90;;;;;;5094084;28;20105;-60
2022/12/22 07:30:50;;;;;;;369.17;189.60;;;7.60;99.90;;;;;;5094129;28;20101;-60
2022/12/22 07:33:16;;;;;;;385.17;192.73;;;7.60;99.90;;;;;;5093926;28;20032;-60
2022/12/22 07:35:42;;;;;;;378.52;195.02;;;7.70;99.90;;;;;;5094182;28;20520;-60
2022/12/22 07:38:08;;;;;;;446.63;215.48;;;7.70;99.90;;;;;;5094244;28;20030;-60
2022/12/22 07:40:34;;;;;;;467.10;232.73;;;7.70;99.90;;;;;;5094282;28;20111;-60
2022/12/22 07:43:00;;;;;;;456.35;232.15;;;7.70;99.90;;;;;;5094023;28;20034;-60
2022/12/22 07:45:27;;;;;;;427.35;223.70;;;7.80;99.90;;;;;;5094256;28;20031;-63
2022/12/22 07:48:00;;;;;;;418.15;214.13;;;7.80;99.90;;;;;;5094361;28;20521;-63
2022/12/22 07:50:27;;;;;;;398.80;195.88;;;7.80;99.90;;;;;;5089176;28;20051;-63
2022/12/22 07:52:55;;;;;;;347.42;168.48;;;7.80;99.90;;;;;;5073689;28;20032;-62
2022/12/22 07:55:22;;;;;;;356.90;178.80;;;7.90;99.90;;;;;;5073717;28;20437;-63
2022/12/22 07:57:48;;;;;;;372.67;184.50;;;7.90;99.90;;;;;;5073563;28;20020;-62
2022/12/22 08:00:15;;;;;;;361.10;168.18;;;7.90;99.90;;;;;;5073379;28;20035;-62
2022/12/22 08:02:41;;;;;;;344.02;168.75;;;8.00;99.90;;;;;;5073611;28;20387;-63
2022/12/22 08:05:08;;;;;;;339.25;169.15;;;8.00;99.90;;;;;;5073873;28;20033;-62
2022/12/22 08:07:34;;;;;;;341.38;171.70;;;8.00;99.90;;;;;;5074520;28;20116;-63
2022/12/22 08:10:00;;;;;;;340.50;171.85;;;8.00;99.90;;;;;;5063092;28;20032;-62
2022/12/22 08:12:28;;;;;;;330.70;164.90;;;8.00;99.90;;;;;;5088651;28;20370;-62
2022/12/22 08:14:54;;;;;;;311.92;160.18;;;8.10;99.90;;;;;;5069014;28;20047;-63
2022/12/22 08:17:20;;;;;;;324.90;166.00;;;8.10;99.90;;;;;;5097607;28;20072;-63
2022/12/22 08:19:47;;;;;;;331.42;166.75;;;8.00;99.90;;;;;;5093798;28;20031;-62
2022/12/22 08:22:13;;;;;;;304.95;156.13;;;8.10;99.90;;;;;;5083755;28;20025;-62
2022/12/22 08:24:39;;;;;;;301.85;155.15;;;8.10;99.90;;;;;;5076160;28;20023;-62
2022/12/22 08:27:10;;;;;;;316.45;158.82;;;8.20;99.90;;;;;;5076621;28;20068;-62
2022/12/22 08:29:48;;;;;;;312.80;160.55;;;8.20;99.90;;;;;;5076369;28;20413;-62
2022/12/22 08:32:14;;;;;;;318.33;159.27;;;8.30;99.90;;;;;;5086018;28;20090;-63
2022/12/22 08:34:41;;;;;;;324.50;163.82;;;8.30;99.90;;;;;;5076204;28;20112;-62
2022/12/22 08:37:15;;;;;;;345.30;179.27;;;8.40;99.90;;;;;;5076131;28;20028;-63
2022/12/22 08:39:44;;;;;;;319.48;165.38;;;8.50;99.90;;;;;;5094781;28;20769;-62
2022/12/22 08:42:16;;;;;;;308.70;152.13;;;8.60;99.90;;;;;;5096090;28;20035;-63
2022/12/22 08:44:42;;;;;;;292.92;148.77;;;8.70;99.90;;;;;;5096388;28;20024;-62
2022/12/22 08:47:08;;;;;;;294.40;146.15;;;8.80;99.90;;;;;;5086202;28;20381;-62
2022/12/22 08:49:34;;;;;;;310.48;145.10;;;8.70;99.90;;;;;;5075900;28;20025;-62
2022/12/22 08:52:00;;;;;;;302.70;144.35;;;8.90;99.90;;;;;;5092235;28;20039;-63
2022/12/22 08:54:26;;;;;;;291.00;145.38;;;9.00;99.90;;;;;;5086657;28;20382;-63
2022/12/22 08:56:52;;;;;;;314.27;149.70;;;9.10;99.90;;;;;;5074845;28;20024;-63
2022/12/22 08:59:18;;;;;;;283.42;142.15;;;9.10;99.90;;;;;;5075463;28;20588;-62
2022/12/22 09:01:49;;;;;;;303.52;147.10;;;9.10;99.90;;;;;;5075162;28;20060;-63
2022/12/22 09:04:18;;;;;;;293.83;147.02;;;9.20;99.90;;;;;;5075337;28;20039;-63
2022/12/22 09:06:44;;;;;;;292.60;145.00;;;9.40;99.90;;;;;;5075318;28;20094;-63
2022/12/22 09:09:12;;;;;;;298.17;145.35;;;9.60;99.90;;;;;;5068476;28;20128;-64
2022/12/22 09:11:39;;;;;;;299.42;142.05;;;9.70;99.90;;;;;;5094186;28;20470;-63
2022/12/22 09:14:05;;;;;;;267.65;134.55;;;9.80;99.90;;;;;;5096019;28;20020;-63
2022/12/22 09:16:32;;;;;;;255.80;134.60;;;9.90;99.90;;;;;;5094924;28;20116;-63
2022/12/22 09:19:13;;;;;;;258.17;127.90;;;9.90;99.90;;;;;;5086976;28;20486;-63
2022/12/22 09:21:39;;;;;;;256.77;125.10;;;9.90;99.90;;;;;;5067543;28;20033;-63
2022/12/22 09:24:08;;;;;;;268.95;130.15;;;9.90;99.90;;;;;;5075197;28;20024;-64
2022/12/22 09:26:34;;;;;;;261.88;129.90;;;9.90;99.90;;;;;;5074750;28;20036;-63
2022/12/22 09:29:01;;;;;;;266.80;132.05;;;9.80;99.90;;;;;;5074646;28;20659;-63
2022/12/22 09:31:28;;;;;;;242.63;124.60;;;9.90;99.90;;;;;;5074761;28;20037;-63
2022/12/22 09:33:54;;;;;;;247.40;123.35;;;9.80;99.90;;;;;;5075130;28;20413;-63
2022/12/22 09:36:27;;;;;;;242.90;118.50;;;9.90;99.90;;;;;;5057381;28;20036;-63
2022/12/22 09:38:53;;;;;;;211.23;109.32;;;10.10;99.90;;;;;;5075201;28;20027;-63
2022/12/22 09:41:27;;;;;;;218.90;113.40;;;10.20;99.90;;;;;;5079745;28;20032;-63
2022/12/22 09:43:55;;;;;;;223.80;110.15;;;10.50;99.90;;;;;;5088177;28;20039;-64
2022/12/22 09:46:27;;;;;;;209.23;109.97;;;10.60;99.90;;;;;;5088250;28;20158;-63
2022/12/22 09:48:53;;;;;;;217.60;107.65;;;10.80;99.90;;;;;;5088104;28;20027;-64
2022/12/22 09:51:23;;;;;;;221.35;105.82;;;10.90;99.90;;;;;;5075760;28;20021;-63
2022/12/22 09:54:01;;;;;;;203.82;105.68;;;11.10;99.60;;;;;;5090828;28;20477;-63
2022/12/22 09:56:28;;;;;;;216.10;106.68;;;11.20;98.40;;;;;;5094232;28;20024;-64
2022/12/22 09:58:54;;;;;;;206.85;104.88;;;11.00;97.70;;;;;;5094541;28;20020;-63
2022/12/22 10:01:22;;;;;;;209.45;104.53;;;11.00;97.70;;;;;;5094814;28;20335;-64
2022/12/22 10:04:31;;;;;;;202.05;102.93;;;11.10;97.70;;;;;;5094599;28;20031;-64
2022/12/22 10:06:57;;;;;;;215.10;102.07;;;11.20;97.80;;;;;;4998285;28;20066;-64
2022/12/22 10:09:29;;;;;;;210.50;104.10;;;11.40;98.00;;;;;;4999118;28;20080;-64
2022/12/22 10:11:58;;;;;;;222.50;103.05;;;11.50;96.90;;;;;;5001023;28;20057;-64
2022/12/22 10:14:45;;;;;;;212.57;102.80;;;11.70;97.30;;;;;;4995627;28;20045;-63
2022/12/22 10:17:27;;;;;;;190.20;97.82;;;11.80;95.50;;;;;;4988985;28;20034;-64
2022/12/22 10:20:07;;;;;;;196.32;100.05;;;11.80;94.80;;;;;;4973377;28;20062;-64
2022/12/22 10:23:01;;;;;;;196.93;102.82;;;11.70;95.40;;;;;;4985053;28;20499;-63
2022/12/22 10:25:27;;;;;;;227.52;109.88;;;11.90;95.30;;;;;;4975510;28;20042;-64
2022/12/22 10:28:00;;;;;;;220.13;110.30;;;11.90;94.70;;;;;;4973321;28;20074;-63
2022/12/22 10:30:33;;;;;;;216.88;110.57;;;12.00;94.50;;;;;;4982057;28;20046;-64
2022/12/22 10:33:16;;;;;;;210.35;107.25;;;11.90;94.40;;;;;;4970625;28;20042;-64
2022/12/22 10:35:55;;;;;;;193.38;101.18;;;11.90;94.30;;;;;;4973145;28;20077;-64
2022/12/22 10:38:33;;;;;;;205.23;101.90;;;11.70;93.80;;;;;;4972440;28;20035;-64
2022/12/22 10:41:13;;;;;;;195.95;96.43;;;11.70;93.50;;;;;;5027352;28;20033;-64
2022/12/22 10:43:49;;;;;;;165.40;87.75;;;11.60;93.90;;;;;;5047850;28;20028;-63
2022/12/22 10:46:18;;;;;;;169.82;84.70;;;11.60;93.50;;;;;;5074672;28;20029;-64
2022/12/22 10:48:45;;;;;;;175.07;86.40;;;11.60;93.60;;;;;;5045884;28;20033;-64
2022/12/22 10:51:14;;;;;;;165.48;86.25;;;11.70;93.80;;;;;;5072488;28;20051;-64
2022/12/22 10:53:49;;;;;;;177.88;88.10;;;11.90;94.10;;;;;;5073476;28;20028;-64
2022/12/22 10:56:24;;;;;;;189.57;88.85;;;11.70;93.30;;;;;;5057029;28;20552;-64
2022/12/22 10:59:03;;;;;;;184.40;84.72;;;11.90;93.20;;;;;;5064864;28;20024;-64
2022/12/22 11:01:38;;;;;;;161.00;84.22;;;11.90;93.20;;;;;;5065485;28;20457;-64
2022/12/22 11:04:22;;;;;;;164.70;81.85;;;12.00;93.10;;;;;;5062657;28;20053;-65
2022/12/22 11:06:48;;;;;;;193.65;86.93;;;12.10;91.60;;;;;;5054645;28;20036;-64
2022/12/22 11:09:14;;;;;;;192.68;92.97;;;12.00;91.70;;;;;;5055478;28;20059;-64
2022/12/22 11:11:40;;;;;;;179.48;88.00;;;11.90;91.90;;;;;;5052437;28;20029;-64
2022/12/22 11:14:21;;;;;;;185.43;94.25;;;12.00;92.60;;;;;;5048008;28;20032;-64
2022/12/22 11:17:28;;;;;;;202.85;101.57;;;12.00;92.30;;;;;;5045485;28;20017;-63
2022/12/22 11:20:08;;;;;;;212.02;97.40;;;12.10;91.70;;;;;;5053377;28;20074;-63
2022/12/22 11:22:54;;;;;;;199.95;97.43;;;12.10;91.30;;;;;;5053717;28;20043;-61
2022/12/22 11:25:45;;;;;;;192.63;96.82;;;12.10;91.60;;;;;;5060139;28;20036;-62
2022/12/22 11:28:32;;;;;;;217.02;100.30;;;12.00;91.20;;;;;;5073642;28;20035;-61
2022/12/22 11:31:13;;;;;;;205.45;99.85;;;12.00;92.00;;;;;;5073690;28;20058;-62
2022/12/22 11:33:57;;;;;;;211.60;100.38;;;12.00;91.90;;;;;;5073250;28;20036;-62
2022/12/22 11:36:46;;;;;;;209.48;101.40;;;12.10;91.80;;;;;;5073370;28;20085;-62
2022/12/22 11:39:15;;;;;;;209.48;107.53;;;12.10;92.20;;;;;;5072964;28;20429;-62
2022/12/22 11:42:17;;;;;;;224.82;115.22;;;12.10;90.90;;;;;;5073449;28;20139;-62
2022/12/22 11:44:54;;;;;;;232.35;113.70;;;12.10;90.70;;;;;;5070507;28;20028;-62
2022/12/22 11:47:44;;;;;;;225.85;115.95;;;12.20;91.60;;;;;;5072672;28;20051;-62
2022/12/22 11:50:41;;;;;;;213.68;110.90;;;12.30;92.00;;;;;;5073003;28;20028;-62
2022/12/22 11:53:25;;;;;;;214.13;105.05;;;12.30;92.00;;;;;;5056332;28;20037;-62
2022/12/22 11:56:21;;;;;;;212.68;106.03;;;12.30;92.00;;;;;;5069566;28;20028;-63
2022/12/22 11:59:05;;;;;;;199.48;102.13;;;12.20;92.00;;;;;;5060658;28;20511;-62
2022/12/22 12:01:52;;;;;;;227.32;104.05;;;12.20;92.20;;;;;;5081846;28;20020;-62
2022/12/22 12:04:56;;;;;;;200.40;99.30;;;12.20;91.80;;;;;;5080433;28;20021;-62
2022/12/22 12:07:27;;;;;;;179.50;93.47;;;12.20;91.70;;;;;;5082252;28;20035;-62
2022/12/22 12:10:11;;;;;;;195.70;94.13;;;12.30;91.70;;;;;;5080072;28;20028;-62
2022/12/22 12:12:43;;;;;;;209.60;96.13;;;12.30;91.30;;;;;;5070262;28;20087;-62
2022/12/22 12:15:34;;;;;;;188.00;95.40;;;12.10;91.30;;;;;;5081998;28;20018;-62
2022/12/22 12:18:38;;;;;;;188.70;92.75;;;12.10;91.30;;;;;;5073783;28;20052;-62
2022/12/22 12:21:32;;;;;;;193.55;97.55;;;12.10;91.20;;;;;;5070414;28;20067;-62
2022/12/22 12:24:07;;;;;;;212.45;96.38;;;12.20;91.30;;;;;;5076146;28;20290;-62
2022/12/22 12:26:59;;;;;;;203.70;89.40;;;12.20;91.50;;;;;;5073582;28;20056;-64
2022/12/22 12:29:33;;;;;;;203.82;89.45;;;12.30;91.20;;;;;;5075982;28;20505;-64
2022/12/22 12:32:21;;;;;;;190.80;91.35;;;12.20;90.80;;;;;;5076116;28;20104;-64
2022/12/22 12:34:53;;;;;;;193.65;91.65;;;12.20;90.80;;;;;;5076585;28;20030;-64
2022/12/22 12:37:29;;;;;;;200.88;93.57;;;12.20;90.90;;;;;;5076021;28;20043;-64
2022/12/22 12:40:33;;;;;;;197.05;90.85;;;12.20;91.30;;;;;;5075179;28;20051;-64
2022/12/22 12:43:01;;;;;;;200.50;91.90;;;12.30;91.50;;;;;;5075676;28;20028;-64
2022/12/22 12:45:39;;;;;;;189.70;89.85;;;12.30;91.40;;;;;;5070825;28;20032;-64
2022/12/22 12:48:27;;;;;;;196.25;89.30;;;12.30;91.50;;;;;;5072685;28;20031;-65
2022/12/22 12:50:54;;;;;;;183.18;89.25;;;12.20;91.60;;;;;;5070860;28;20214;-64
2022/12/22 12:53:23;;;;;;;188.68;89.30;;;12.30;91.60;;;;;;5071901;28;20089;-64
2022/12/22 12:55:48;;;;;;;176.70;88.57;;;12.20;91.80;;;;;;5070962;28;20037;-64
2022/12/22 12:58:39;;;;;;;195.15;88.85;;;12.20;91.70;;;;;;5070181;28;20023;-64
2022/12/22 13:01:28;;;;;;;198.60;91.38;;;12.10;92.00;;;;;;5075101;28;20020;-64
2022/12/22 13:03:53;;;;;;;204.05;91.07;;;12.00;92.00;;;;;;5008520;28;20069;-65
2022/12/22 13:06:44;;;;;;;202.90;92.32;;;12.00;92.40;;;;;;5073879;28;20013;-64
2022/12/22 13:09:15;;;;;;;;;;;12.00;92.80;;;;;;5065181;28;20084;-64
2022/12/22 13:11:41;;;;;;;196.90;89.97;;;11.90;93.60;;;;;;5064932;28;19912;-64
2022/12/22 13:14:07;;;;;;;216.23;95.15;;;11.90;93.70;;;;;;5055402;28;20025;-64
2022/12/22 13:16:36;;;;;;;218.60;95.93;;;11.90;93.80;;;;;;5055620;28;20074;-64
2022/12/22 13:19:11;;;;;;;202.65;88.88;;;12.00;94.00;;;;;;5072737;28;20056;-64
2022/12/22 13:21:41;;;;;;;181.98;87.10;;;12.00;93.90;;;;;;5075710;28;20449;-64
2022/12/22 13:24:25;;;;;;;192.75;89.82;;;12.00;93.50;;;;;;5075589;28;20032;-64
2022/12/22 13:26:53;;;;;;;198.68;94.13;;;12.10;93.30;;;;;;5081815;28;20039;-64
2022/12/22 13:29:34;;;;;;;204.05;94.38;;;12.10;93.10;;;;;;5085356;28;20373;-64
2022/12/22 13:32:13;;;;;;;210.00;97.10;;;12.00;93.30;;;;;;5095347;28;20036;-64
2022/12/22 13:34:51;;;;;;;208.02;98.28;;;12.00;93.20;;;;;;5081003;28;20071;-64
2022/12/22 13:37:19;;;;;;;204.40;101.20;;;12.00;93.50;;;;;;5077899;28;20427;-64
2022/12/22 13:40:10;;;;;;;197.68;97.78;;;12.00;93.70;;;;;;5093247;28;20103;-64
2022/12/22 13:42:56;;;;;;;196.23;94.35;;;12.00;93.80;;;;;;5082766;28;20033;-64
2022/12/22 13:46:08;;;;;;;180.93;93.82;;;11.80;94.00;;;;;;5081275;28;20033;-64
2022/12/22 13:48:38;;;;;;;194.15;90.65;;;11.70;94.50;;;;;;5046025;28;20064;-64
2022/12/22 13:51:12;;;;;;;209.07;90.18;;;11.60;94.90;;;;;;5083894;28;20028;-64
2022/12/22 13:53:48;;;;;;;185.45;91.28;;;11.50;95.20;;;;;;5086022;28;20027;-64
2022/12/22 13:56:22;;;;;;;193.93;90.45;;;11.50;95.30;;;;;;5094826;28;20016;-64
2022/12/22 13:58:56;;;;;;;173.95;89.63;;;11.50;95.70;;;;;;5094856;28;20062;-64
2022/12/22 14:01:23;;;;;;;170.25;87.40;;;11.50;95.90;;;;;;5092743;28;20028;-64
2022/12/22 14:03:56;;;;;;;190.23;90.28;;;11.40;96.40;;;;;;5081918;28;20052;-64
2022/12/22 14:06:38;;;;;;;167.80;88.18;;;11.40;97.00;;;;;;5085765;28;20085;-64
2022/12/22 14:09:24;;;;;;;;;;;11.30;97.20;;;;;;5090790;28;20051;-64
2022/12/22 14:12:06;;;;;;;162.70;83.35;;;11.20;97.30;;;;;;5080513;28;19912;-64
2022/12/22 14:14:40;;;;;;;174.90;88.30;;;11.20;97.90;;;;;;5079454;28;20474;-64
2022/12/22 14:17:22;;;;;;;169.32;86.47;;;11.10;97.80;;;;;;5094564;28;20032;-64
2022/12/22 14:19:52;;;;;;;179.82;92.25;;;11.10;98.10;;;;;;5094537;28;20039;-64
2022/12/22 14:22:41;;;;;;;176.00;89.97;;;11.00;98.30;;;;;;5087737;28;20050;-64
2022/12/22 14:25:18;;;;;;;180.90;94.18;;;11.00;98.90;;;;;;5094301;28;20111;-64
2022/12/22 14:27:53;;;;;;;190.02;95.10;;;11.00;99.30;;;;;;5094823;28;20059;-64
2022/12/22 14:30:31;;;;;;;188.35;95.47;;;10.90;99.60;;;;;;5094658;28;20496;-64
2022/12/22 14:33:29;;;;;;;187.52;94.90;;;10.90;99.90;;;;;;5094585;28;20032;-64
2022/12/22 14:36:10;;;;;;;193.73;96.65;;;10.90;99.90;;;;;;5094760;28;20469;-64
2022/12/22 14:38:42;;;;;;;198.77;92.63;;;10.80;99.90;;;;;;5094475;28;20625;-64
2022/12/22 14:44:03;;;;;;;213.68;95.95;;;10.70;99.90;;;;;;5094749;28;20489;-64
2022/12/22 14:46:30;;;;;;;223.07;99.95;;;10.70;99.90;;;;;;5094242;28;20481;-64
2022/12/22 14:48:59;;;;;;;204.68;95.90;;;10.70;99.90;;;;;;5094924;28;20024;-64
2022/12/22 14:51:26;;;;;;;190.50;92.88;;;10.70;99.90;;;;;;5081178;28;20028;-64
2022/12/22 14:53:58;;;;;;;172.30;88.65;;;10.70;99.90;;;;;;5074062;28;20028;-64
2022/12/22 14:56:26;;;;;;;183.23;94.13;;;10.50;99.90;;;;;;5074073;28;20036;-64
2022/12/22 14:59:10;;;;;;;179.05;95.28;;;10.50;99.90;;;;;;5074218;28;20103;-64
2022/12/22 15:01:37;;;;;;;192.02;101.65;;;10.50;99.90;;;;;;5074216;28;20056;-64
2022/12/22 15:04:16;;;;;;;203.52;101.07;;;10.50;99.90;;;;;;5074176;28;20028;-63
2022/12/22 15:06:46;;;;;;;225.63;112.07;;;10.50;99.90;;;;;;5074033;28;20037;-64
2022/12/22 15:09:12;;;;;;;217.37;111.17;;;10.50;99.90;;;;;;5074199;28;20460;-64
2022/12/22 15:11:43;;;;;;;234.00;114.40;;;10.50;99.90;;;;;;5073822;28;20107;-64
2022/12/22 15:14:14;;;;;;;;;;;10.50;99.90;;;;;;5074538;28;20426;-64
2022/12/22 15:16:40;;;;;;;;;;;10.40;99.90;;;;;;5074318;28;19908;-64
2022/12/22 15:19:06;;;;;;;230.52;111.32;;;10.40;99.90;;;;;;5073674;28;19923;-63
2022/12/22 15:21:34;;;;;;;225.50;107.32;;;10.40;99.90;;;;;;5073715;28;20025;-64
2022/12/22 15:24:00;;;;;;;229.32;109.82;;;10.30;99.90;;;;;;5073920;28;20048;-64
2022/12/22 15:26:26;;;;;;;221.02;105.30;;;10.30;99.90;;;;;;5079920;28;20136;-64
2022/12/22 15:28:52;;;;;;;217.10;102.13;;;10.40;99.90;;;;;;5080679;28;20060;-64
2022/12/22 15:31:18;;;;;;;217.65;106.50;;;10.30;99.90;;;;;;5080169;28;20070;-63
2022/12/22 15:33:44;;;;;;;209.00;109.50;;;10.30;99.90;;;;;;5080397;28;20489;-63
2022/12/22 15:36:12;;;;;;;213.80;101.22;;;10.30;99.90;;;;;;5080689;28;20016;-63
2022/12/22 15:38:39;;;;;;;295.15;145.88;;;10.30;99.90;;;;;;5080295;28;20031;-64
2022/12/22 15:41:06;;;;;;;273.55;137.55;;;10.40;99.90;;;;;;5080591;28;20258;-64
2022/12/22 15:43:34;;;;;;;323.40;159.30;;;10.30;99.90;;;;;;5080082;28;20094;-64
2022/12/22 15:46:01;;;;;;;313.42;157.43;;;10.20;99.90;;;;;;5080576;28;20103;-63
2022/12/22 15:48:32;;;;;;;280.33;144.35;;;10.10;99.90;;;;;;5080105;28;20553;-63
2022/12/22 15:51:00;;;;;;;218.50;113.43;;;10.10;99.90;;;;;;5080266;28;20047;-64
2022/12/22 15:53:26;;;;;;;199.80;101.00;;;10.00;99.90;;;;;;5080026;28;20034;-64
2022/12/22 15:55:54;;;;;;;198.93;104.30;;;10.00;99.90;;;;;;5080355;28;20028;-63
2022/12/22 15:58:27;;;;;;;201.00;104.95;;;10.00;99.90;;;;;;5080276;28;20028;-64
2022/12/22 16:00:53;;;;;;;185.57;98.57;;;10.00;99.90;;;;;;5080313;28;20063;-63
2022/12/22 16:03:19;;;;;;;219.48;116.55;;;9.90;99.90;;;;;;5080042;28;20024;-63
2022/12/22 16:05:45;;;;;;;254.18;133.75;;;9.90;99.90;;;;;;5062293;28;20025;-64
2022/12/22 16:08:19;;;;;;;263.17;137.90;;;9.90;99.90;;;;;;5080124;28;20040;-64
2022/12/22 16:10:46;;;;;;;267.52;136.77;;;9.90;99.90;;;;;;5080000;28;20032;-64
2022/12/22 16:13:14;;;;;;;296.92;153.02;;;9.80;99.90;;;;;;5079963;28;20028;-63
2022/12/22 16:15:41;;;;;;;267.80;136.23;;;9.80;99.90;;;;;;5080243;28;20036;-63
2022/12/22 16:18:10;;;;;;;267.35;138.25;;;9.80;99.90;;;;;;5079895;28;20057;-63
2022/12/22 16:20:41;;;;;;;236.73;123.15;;;9.80;99.90;;;;;;5079944;28;20462;-63